createdAt,value
2023-03-26T00:00:09.505Z,13.77
2023-03-26T00:03:01.885Z,13.72
2023-03-26T00:05:32.309Z,13.67
2023-03-26T00:08:01.664Z,13.63
2023-03-26T00:10:31.038Z,13.56
2023-03-26T00:13:00.371Z,13.47
2023-03-26T00:15:30.160Z,13.39
2023-03-26T00:18:02.638Z,13.32
2023-03-26T00:20:34.778Z,13.26
2023-03-26T00:23:05.103Z,13.21
2023-03-26T00:25:35.054Z,13.12
2023-03-26T00:28:06.375Z,13.06
2023-03-26T00:30:36.277Z,13.00
2023-03-26T00:33:07.839Z,12.94
2023-03-26T00:35:38.985Z,12.92
2023-03-26T00:38:09.016Z,12.78
2023-03-26T00:40:38.471Z,12.74
2023-03-26T00:43:18.876Z,12.69
2023-03-26T00:45:55.558Z,12.62
2023-03-26T00:48:41.922Z,12.57
2023-03-26T00:51:16.826Z,12.54
2023-03-26T00:53:48.572Z,12.51
2023-03-26T00:56:19.383Z,12.50
2023-03-26T00:58:52.135Z,12.51
2023-03-26T01:01:28.734Z,12.49
2023-03-26T01:04:28.613Z,12.48
2023-03-26T01:07:04.230Z,12.46
2023-03-26T01:09:42.920Z,12.45
2023-03-26T01:12:17.214Z,12.44
2023-03-26T01:14:51.044Z,12.41
2023-03-26T01:17:22.403Z,12.40
2023-03-26T01:20:12.414Z,12.39
2023-03-26T01:22:53.429Z,12.35
2023-03-26T01:25:28.013Z,12.32
2023-03-26T01:27:57.824Z,12.29
2023-03-26T01:30:52.055Z,12.29
2023-03-26T01:33:30.286Z,12.26
2023-03-26T01:36:21.319Z,12.24
2023-03-26T01:39:20.251Z,12.23
2023-03-26T01:41:57.502Z,12.19
2023-03-26T01:44:34.820Z,12.17
2023-03-26T01:47:06.576Z,12.19
2023-03-26T01:49:36.552Z,12.17
2023-03-26T01:52:16.201Z,12.21
2023-03-26T01:54:46.757Z,12.26
2023-03-26T01:57:29.805Z,12.29
2023-03-26T02:00:30.280Z,12.29
2023-03-26T02:03:20.543Z,12.29
2023-03-26T02:06:26.422Z,12.30
2023-03-26T02:09:06.221Z,12.32
2023-03-26T02:11:39.201Z,12.33
2023-03-26T02:14:10.656Z,12.33
2023-03-26T02:16:40.121Z,12.35
2023-03-26T02:19:16.169Z,12.33
2023-03-26T02:21:47.005Z,12.31
2023-03-26T02:24:16.917Z,12.31
2023-03-26T02:26:46.794Z,12.31
2023-03-26T02:29:21.466Z,12.31
2023-03-26T02:31:51.313Z,12.34
2023-03-26T02:34:21.210Z,12.36
2023-03-26T02:36:55.035Z,12.42
2023-03-26T02:39:26.310Z,12.44
2023-03-26T02:42:01.675Z,12.48
2023-03-26T02:44:31.317Z,12.51
2023-03-26T02:47:00.768Z,12.55
2023-03-26T02:49:48.238Z,12.56
2023-03-26T02:52:31.928Z,12.57
2023-03-26T02:55:01.748Z,12.53
2023-03-26T02:57:31.499Z,12.48
2023-03-26T03:00:22.912Z,12.47
2023-03-26T03:03:28.257Z,12.43
2023-03-26T03:06:04.034Z,12.42
2023-03-26T03:08:46.224Z,12.39
2023-03-26T03:11:44.450Z,12.38
2023-03-26T03:14:14.269Z,12.35
2023-03-26T03:16:44.086Z,12.33
2023-03-26T03:19:14.508Z,12.32
2023-03-26T03:21:44.192Z,12.28
2023-03-26T03:24:14.096Z,12.25
2023-03-26T03:26:47.918Z,12.24
2023-03-26T03:29:36.420Z,12.25
2023-03-26T03:32:46.914Z,12.19
2023-03-26T03:35:19.824Z,12.16
2023-03-26T03:37:52.428Z,12.09
2023-03-26T03:40:22.045Z,12.01
2023-03-26T03:42:51.803Z,11.96
2023-03-26T03:45:29.014Z,11.92
2023-03-26T03:48:28.751Z,11.90
2023-03-26T03:50:58.305Z,11.91
2023-03-26T03:53:31.631Z,11.89
2023-03-26T03:56:02.335Z,11.88
2023-03-26T03:58:50.820Z,11.89
2023-03-26T04:01:26.431Z,11.89
2023-03-26T04:04:05.744Z,11.88
2023-03-26T04:06:46.564Z,11.86
2023-03-26T04:09:16.930Z,11.87
2023-03-26T04:11:46.959Z,11.87
2023-03-26T04:14:28.091Z,11.90
2023-03-26T04:17:07.364Z,11.90
2023-03-26T04:19:38.611Z,11.93
2023-03-26T04:22:12.151Z,11.96
2023-03-26T04:24:54.708Z,11.95
2023-03-26T04:28:28.913Z,11.99
2023-03-26T04:32:31.055Z,11.96
2023-03-26T04:35:04.300Z,11.97
2023-03-26T04:37:40.205Z,11.97
2023-03-26T04:40:52.284Z,11.98
2023-03-26T04:43:47.557Z,11.96
2023-03-26T04:47:09.640Z,12.00
2023-03-26T04:49:49.065Z,11.97
2023-03-26T04:52:19.041Z,11.94
2023-03-26T04:55:49.278Z,11.92
2023-03-26T04:59:12.587Z,11.88
2023-03-26T05:01:45.983Z,11.91
2023-03-26T05:04:16.539Z,11.88
2023-03-26T05:06:46.376Z,11.87
2023-03-26T05:09:27.725Z,11.86
2023-03-26T05:12:55.859Z,11.90
2023-03-26T05:15:30.868Z,11.94
2023-03-26T05:18:00.285Z,12.02
2023-03-26T05:20:48.055Z,12.09
2023-03-26T05:23:17.613Z,12.14
2023-03-26T05:25:57.431Z,12.21
2023-03-26T05:28:28.494Z,12.28
2023-03-26T05:31:04.158Z,12.34
2023-03-26T05:33:37.343Z,12.38
2023-03-26T05:36:17.383Z,12.42
2023-03-26T05:38:50.551Z,12.44
2023-03-26T05:41:38.946Z,12.46
2023-03-26T05:44:08.839Z,12.46
2023-03-26T05:46:38.252Z,12.49
2023-03-26T05:49:07.902Z,12.46
2023-03-26T05:51:38.040Z,12.49
2023-03-26T05:55:00.051Z,12.43
2023-03-26T05:57:47.865Z,12.43
2023-03-26T06:00:40.370Z,12.43
2023-03-26T06:03:12.931Z,12.40
2023-03-26T06:06:01.625Z,12.37
2023-03-26T06:08:41.367Z,12.38
2023-03-26T06:11:12.784Z,12.37
2023-03-26T06:13:43.525Z,12.39
2023-03-26T06:16:26.247Z,12.36
2023-03-26T06:19:11.915Z,12.35
2023-03-26T06:21:53.339Z,12.29
2023-03-26T06:24:30.391Z,12.26
2023-03-26T06:27:58.472Z,12.20
2023-03-26T06:30:48.060Z,12.15
2023-03-26T06:33:30.149Z,12.10
2023-03-26T06:36:01.354Z,12.05
2023-03-26T06:38:31.576Z,12.03
2023-03-26T06:41:07.272Z,12.01
2023-03-26T06:43:57.031Z,11.98
2023-03-26T06:47:21.529Z,11.97
2023-03-26T06:50:12.132Z,11.95
2023-03-26T06:53:14.085Z,11.98
2023-03-26T06:56:39.812Z,11.95
2023-03-26T06:59:26.471Z,11.94
2023-03-26T07:02:14.353Z,11.96
2023-03-26T07:05:02.317Z,11.94
2023-03-26T07:07:50.642Z,11.93
2023-03-26T07:10:38.402Z,11.91
2023-03-26T07:13:59.943Z,11.91
2023-03-26T07:17:28.503Z,11.93
2023-03-26T07:20:09.396Z,11.96
2023-03-26T07:22:39.446Z,12.02
2023-03-26T07:25:10.113Z,12.07
2023-03-26T07:29:04.444Z,12.13
2023-03-26T07:32:03.564Z,12.17
2023-03-26T07:35:21.144Z,12.24
2023-03-26T07:38:28.721Z,12.30
2023-03-26T07:41:55.382Z,12.36
2023-03-26T07:45:01.059Z,12.42
2023-03-26T07:47:43.166Z,12.45
2023-03-26T07:50:26.056Z,12.44
2023-03-26T07:53:05.917Z,12.47
2023-03-26T07:56:27.950Z,12.49
2023-03-26T08:00:09.153Z,12.50
2023-03-26T08:03:21.359Z,12.49
2023-03-26T08:06:19.585Z,12.54
2023-03-26T08:09:59.016Z,12.72
2023-03-26T08:22:27.462Z,13.09
2023-03-26T08:25:21.834Z,13.21
2023-03-26T08:27:57.159Z,13.35
2023-03-26T08:30:27.856Z,13.46
2023-03-26T08:33:20.712Z,13.57
2023-03-26T08:35:50.240Z,13.65
2023-03-26T08:38:21.637Z,13.64
2023-03-26T08:41:10.520Z,13.61
2023-03-26T08:43:58.587Z,13.58
2023-03-26T08:46:55.889Z,13.49
2023-03-26T08:49:46.726Z,13.41
2023-03-26T08:53:02.399Z,13.35
2023-03-26T08:55:49.630Z,13.30
2023-03-26T08:58:56.840Z,13.11
2023-03-26T09:02:08.957Z,13.01
2023-03-26T09:04:54.472Z,12.91
2023-03-26T09:08:06.517Z,12.80
2023-03-26T09:11:10.751Z,12.71
2023-03-26T09:14:25.657Z,12.70
2023-03-26T09:17:16.292Z,12.67
2023-03-26T09:20:15.195Z,12.69
2023-03-26T09:23:16.171Z,12.71
2023-03-26T09:26:26.315Z,12.78
2023-03-26T09:29:07.985Z,12.89
2023-03-26T09:32:25.764Z,13.03
2023-03-26T09:35:26.039Z,13.24
2023-03-26T09:38:28.672Z,13.48
2023-03-26T09:41:14.863Z,13.71
2023-03-26T09:44:14.769Z,13.84
2023-03-26T09:47:28.121Z,14.10
2023-03-26T09:50:24.075Z,14.87
2023-03-26T09:53:21.140Z,15.58
2023-03-26T09:56:47.066Z,16.29
2023-03-26T09:59:42.744Z,17.04
2023-03-26T10:03:04.373Z,17.61
2023-03-26T10:06:00.111Z,17.70
2023-03-26T10:09:08.768Z,17.38
2023-03-26T10:12:05.030Z,17.21
2023-03-26T10:15:05.313Z,17.24
2023-03-26T10:18:27.445Z,17.23
2023-03-26T10:21:15.939Z,17.00
2023-03-26T10:24:14.676Z,16.98
2023-03-26T10:27:22.096Z,16.96
2023-03-26T10:30:33.243Z,17.11
2023-03-26T10:33:16.217Z,17.66
2023-03-26T10:36:31.990Z,17.91
2023-03-26T10:39:37.990Z,17.61
2023-03-26T10:42:23.652Z,16.86
2023-03-26T10:45:29.245Z,16.83
2023-03-26T10:48:20.549Z,17.68
2023-03-26T10:50:57.467Z,18.06
2023-03-26T10:53:49.691Z,18.08
2023-03-26T10:56:37.521Z,18.06
2023-03-26T10:59:12.833Z,18.05
2023-03-26T11:02:15.752Z,18.60
2023-03-26T11:05:06.481Z,19.28
2023-03-26T11:07:51.922Z,19.12
2023-03-26T11:10:41.657Z,18.93
2023-03-26T11:13:49.260Z,19.10
2023-03-26T11:16:53.635Z,19.31
2023-03-26T11:19:37.152Z,19.40
2023-03-26T11:22:31.856Z,19.75
2023-03-26T11:25:41.543Z,20.02
2023-03-26T11:28:38.166Z,20.79
2023-03-26T11:31:49.514Z,21.62
2023-03-26T11:34:22.500Z,22.32
2023-03-26T11:36:57.260Z,22.22
2023-03-26T11:39:34.163Z,22.78
2023-03-26T11:42:14.105Z,23.23
2023-03-26T11:45:18.200Z,23.10
2023-03-26T11:47:53.999Z,23.02
2023-03-26T11:50:35.967Z,22.03
2023-03-26T11:53:19.403Z,22.28
2023-03-26T11:55:56.031Z,22.74
2023-03-26T11:59:48.882Z,23.12
2023-03-26T12:02:32.852Z,23.62
2023-03-26T12:05:22.499Z,23.82
2023-03-26T12:07:59.753Z,24.12
2023-03-26T12:10:42.987Z,24.10
2023-03-26T12:13:44.367Z,24.29
2023-03-26T12:16:18.577Z,24.32
2023-03-26T12:19:08.438Z,23.80
2023-03-26T12:21:50.399Z,23.59
2023-03-26T12:24:32.251Z,23.28
2023-03-26T12:27:20.613Z,23.02
2023-03-26T12:30:00.476Z,24.03
2023-03-26T12:32:45.276Z,24.81
2023-03-26T12:35:26.898Z,23.85
2023-03-26T12:38:19.883Z,24.45
2023-03-26T12:41:05.117Z,25.01
2023-03-26T12:44:56.580Z,24.53
2023-03-26T12:47:56.265Z,24.43
2023-03-26T12:49:45.434Z,24.99
2023-03-26T12:52:53.791Z,25.39
2023-03-26T12:55:49.354Z,26.04
2023-03-26T12:58:57.726Z,26.40
2023-03-26T13:01:58.959Z,26.08
2023-03-26T13:05:13.386Z,26.12
2023-03-26T13:08:19.439Z,26.64
2023-03-26T13:10:54.743Z,26.28
2023-03-26T13:14:05.623Z,25.41
2023-03-26T13:16:40.179Z,25.69
2023-03-26T13:19:36.895Z,25.32
2023-03-26T13:22:42.602Z,25.74
2023-03-26T13:25:43.309Z,25.57
2023-03-26T13:28:54.116Z,25.70
2023-03-26T13:32:15.594Z,24.89
2023-03-26T13:35:26.636Z,25.61
2023-03-26T13:38:15.579Z,26.45
2023-03-26T13:40:44.890Z,26.95
2023-03-26T13:43:40.970Z,27.19
2023-03-26T13:46:35.162Z,27.77
2023-03-26T13:49:48.892Z,27.74
2023-03-26T13:52:39.190Z,27.65
2023-03-26T13:55:37.614Z,27.31
2023-03-26T13:58:34.700Z,27.40
2023-03-26T14:01:23.236Z,27.15
2023-03-26T14:04:17.976Z,27.02
2023-03-26T14:06:54.202Z,26.56
2023-03-26T14:09:32.102Z,26.16
2023-03-26T14:12:25.511Z,25.01
2023-03-26T14:15:14.115Z,24.40
2023-03-26T14:18:07.042Z,24.78
2023-03-26T14:21:04.818Z,25.11
2023-03-26T14:24:07.475Z,24.57
2023-03-26T14:27:05.690Z,24.45
2023-03-26T14:29:59.057Z,24.75
2023-03-26T14:33:11.027Z,25.07
2023-03-26T14:36:49.644Z,25.43
2023-03-26T14:39:49.720Z,25.81
2023-03-26T14:43:04.571Z,25.88
2023-03-26T14:45:52.096Z,24.56
2023-03-26T14:48:50.276Z,23.21
2023-03-26T14:51:19.457Z,22.88
2023-03-26T14:53:57.142Z,22.37
2023-03-26T14:57:10.183Z,21.46
2023-03-26T15:00:16.065Z,20.55
2023-03-26T15:03:27.520Z,19.59
2023-03-26T15:06:21.335Z,18.98
2023-03-26T15:08:53.472Z,18.70
2023-03-26T15:12:12.080Z,18.39
2023-03-26T15:15:14.016Z,18.16
2023-03-26T15:18:23.432Z,17.87
2023-03-26T15:21:14.234Z,17.50
2023-03-26T15:24:27.618Z,17.16
2023-03-26T15:27:37.233Z,16.75
2023-03-26T15:30:21.688Z,16.42
2023-03-26T15:33:24.934Z,16.40
2023-03-26T15:36:22.639Z,16.29
2023-03-26T15:39:30.671Z,16.02
2023-03-26T15:42:22.278Z,15.94
2023-03-26T15:45:13.283Z,15.94
2023-03-26T15:48:02.329Z,15.95
2023-03-26T15:50:40.876Z,15.87
2023-03-26T15:53:26.406Z,15.90
2023-03-26T15:56:07.874Z,15.82
2023-03-26T15:59:23.825Z,15.66
2023-03-26T16:02:16.378Z,15.45
2023-03-26T16:04:56.094Z,15.30
2023-03-26T16:08:19.203Z,15.27
2023-03-26T16:10:58.387Z,15.26
2023-03-26T16:13:36.317Z,15.25
2023-03-26T16:16:07.222Z,15.21
2023-03-26T16:18:45.682Z,15.04
2023-03-26T16:21:36.608Z,14.95
2023-03-26T16:24:06.024Z,14.92
2023-03-26T16:26:44.033Z,14.88
2023-03-26T16:29:24.798Z,14.79
2023-03-26T16:32:35.590Z,14.70
2023-03-26T16:35:21.221Z,14.56
2023-03-26T16:38:05.889Z,14.49
2023-03-26T16:40:36.822Z,14.43
2023-03-26T16:43:55.448Z,14.37
2023-03-26T16:46:38.550Z,14.27
2023-03-26T16:49:18.990Z,14.14
2023-03-26T16:52:10.131Z,13.93
2023-03-26T16:54:57.207Z,13.68
2023-03-26T16:57:56.787Z,13.52
2023-03-26T17:00:55.106Z,13.41
2023-03-26T17:03:35.689Z,13.37
2023-03-26T17:06:35.881Z,13.32
2023-03-26T17:10:03.877Z,13.22
2023-03-26T17:13:04.300Z,13.07
2023-03-26T17:16:01.762Z,12.95
2023-03-26T17:18:37.210Z,12.86
2023-03-26T17:21:22.445Z,12.77
2023-03-26T17:24:04.278Z,12.70
2023-03-26T17:27:04.319Z,12.69
2023-03-26T17:30:04.128Z,12.66
2023-03-26T17:32:58.942Z,12.62
2023-03-26T17:35:50.936Z,12.58
2023-03-26T17:38:26.820Z,12.51
2023-03-26T17:40:59.500Z,12.45
2023-03-26T17:43:52.882Z,12.39
2023-03-26T17:46:48.315Z,12.33
2023-03-26T17:49:31.264Z,12.27
2023-03-26T17:52:30.506Z,12.20
2023-03-26T17:55:01.948Z,12.16
2023-03-26T17:57:43.121Z,12.11
2023-03-26T18:00:27.008Z,12.07
2023-03-26T18:03:11.551Z,12.03
2023-03-26T18:05:41.767Z,12.01
2023-03-26T18:08:58.395Z,12.00
2023-03-26T18:11:55.471Z,11.99
2023-03-26T18:14:36.665Z,11.93
2023-03-26T18:17:07.075Z,11.77
2023-03-26T18:19:54.692Z,11.62
2023-03-26T18:22:27.866Z,11.45
2023-03-26T18:25:00.821Z,11.34
2023-03-26T18:27:41.222Z,11.23
2023-03-26T18:30:17.977Z,11.14
2023-03-26T18:33:00.528Z,11.07
2023-03-26T18:35:46.624Z,11.01
2023-03-26T18:38:35.708Z,10.95
2023-03-26T18:41:20.186Z,10.89
2023-03-26T18:43:49.835Z,10.82
2023-03-26T18:46:19.394Z,10.77
2023-03-26T18:48:48.949Z,10.75
2023-03-26T18:51:23.172Z,10.73
2023-03-26T18:53:58.387Z,10.72
2023-03-26T18:56:33.861Z,10.71
2023-03-26T18:59:17.568Z,10.70
2023-03-26T19:01:48.767Z,10.69
2023-03-26T19:04:18.849Z,10.68
2023-03-26T19:06:48.484Z,10.68
2023-03-26T19:09:30.842Z,10.66
2023-03-26T19:12:28.017Z,10.66
2023-03-26T19:15:16.987Z,10.66
2023-03-26T19:17:56.738Z,10.65
2023-03-26T19:20:30.118Z,10.64
2023-03-26T19:22:59.557Z,10.62
2023-03-26T19:25:35.799Z,10.59
2023-03-26T19:28:07.475Z,10.56
2023-03-26T19:30:41.153Z,10.53
2023-03-26T19:33:18.552Z,10.47
2023-03-26T19:36:04.976Z,10.41
2023-03-26T19:39:05.193Z,10.37
2023-03-26T19:41:41.117Z,10.35
2023-03-26T19:44:29.578Z,10.32
2023-03-26T19:47:31.926Z,10.30
2023-03-26T19:50:30.487Z,10.27
2023-03-26T19:53:16.556Z,10.20
2023-03-26T19:56:18.617Z,10.17
2023-03-26T19:58:50.162Z,10.10
2023-03-26T20:01:27.666Z,10.07
2023-03-26T20:04:10.271Z,10.04
2023-03-26T20:06:43.926Z,10.01
2023-03-26T20:09:14.199Z,9.98
2023-03-26T20:11:43.679Z,9.96
2023-03-26T20:14:26.149Z,9.94
2023-03-26T20:16:55.955Z,9.93
2023-03-26T20:19:25.998Z,9.92
2023-03-26T20:21:55.848Z,9.91
2023-03-26T20:24:26.100Z,9.89
2023-03-26T20:26:55.377Z,9.88
2023-03-26T20:29:24.778Z,9.86
2023-03-26T20:31:54.387Z,9.84
2023-03-26T20:34:24.774Z,9.83
2023-03-26T20:36:56.120Z,9.81
2023-03-26T20:39:25.648Z,9.79
2023-03-26T20:41:56.445Z,9.76
2023-03-26T20:44:28.112Z,9.73
2023-03-26T20:46:59.056Z,9.71
2023-03-26T20:49:29.753Z,9.69
2023-03-26T20:52:00.262Z,9.66
2023-03-26T20:54:32.160Z,9.64
2023-03-26T20:57:02.696Z,9.62
2023-03-26T20:59:32.587Z,9.59
2023-03-26T21:02:02.128Z,9.57
2023-03-26T21:04:32.319Z,9.54
2023-03-26T21:07:11.077Z,9.48
2023-03-26T21:09:48.878Z,9.43
2023-03-26T21:12:35.006Z,9.38
2023-03-26T21:15:13.420Z,9.33
2023-03-26T21:17:46.845Z,9.27
2023-03-26T21:20:20.933Z,9.21
2023-03-26T21:23:20.361Z,9.11
2023-03-26T21:26:06.462Z,9.04
2023-03-26T21:28:49.373Z,8.99
2023-03-26T21:31:24.312Z,8.97
2023-03-26T21:33:55.279Z,8.95
2023-03-26T21:36:24.958Z,8.93
2023-03-26T21:38:54.923Z,8.89
2023-03-26T21:41:24.255Z,8.86
2023-03-26T21:43:53.682Z,8.83
2023-03-26T21:46:23.539Z,8.79
2023-03-26T21:48:53.426Z,8.70
2023-03-26T21:51:23.247Z,8.61
2023-03-26T21:53:53.854Z,8.56
2023-03-26T21:56:46.940Z,8.54
2023-03-26T21:59:19.393Z,8.50
2023-03-26T22:02:24.909Z,8.45
2023-03-26T22:05:01.677Z,8.35
2023-03-26T22:07:49.998Z,8.29
2023-03-26T22:10:19.557Z,8.26
2023-03-26T22:12:49.508Z,8.28
2023-03-26T22:15:19.257Z,8.29
2023-03-26T22:17:55.960Z,8.28
2023-03-26T22:20:25.446Z,8.24
2023-03-26T22:22:55.429Z,8.21
2023-03-26T22:25:25.113Z,8.19
2023-03-26T22:27:55.374Z,8.17
2023-03-26T22:30:24.693Z,8.14
2023-03-26T22:32:54.230Z,8.11
2023-03-26T22:35:23.576Z,8.08
2023-03-26T22:37:53.069Z,8.08
2023-03-26T22:40:30.579Z,8.08
2023-03-26T22:42:59.890Z,8.06
2023-03-26T22:45:30.213Z,8.06
2023-03-26T22:48:03.918Z,8.06
2023-03-26T22:50:33.876Z,8.05
2023-03-26T22:53:03.338Z,8.04
2023-03-26T22:55:32.611Z,8.03
2023-03-26T22:58:02.559Z,8.02
2023-03-26T23:00:32.463Z,8.00
2023-03-26T23:03:02.013Z,7.97
2023-03-26T23:05:31.520Z,7.96
2023-03-26T23:08:01.062Z,7.95
2023-03-26T23:10:30.954Z,7.94
2023-03-26T23:13:00.858Z,7.92
2023-03-26T23:15:30.597Z,7.89
2023-03-26T23:17:59.980Z,7.86
2023-03-26T23:20:30.136Z,7.84
2023-03-26T23:22:59.483Z,7.81
2023-03-26T23:25:30.636Z,7.77
2023-03-26T23:28:01.036Z,7.73
2023-03-26T23:30:30.558Z,7.71
2023-03-26T23:33:00.036Z,7.65
2023-03-26T23:35:29.783Z,7.61
2023-03-26T23:38:02.294Z,7.57
2023-03-26T23:40:32.398Z,7.53
2023-03-26T23:43:01.899Z,7.49
2023-03-26T23:45:31.782Z,7.45
2023-03-26T23:48:02.581Z,7.41
2023-03-26T23:50:33.088Z,7.38
2023-03-26T23:53:02.517Z,7.37
2023-03-26T23:55:32.123Z,7.36
2023-03-26T23:58:03.493Z,7.36
